sensor_id;sensor_type;location;lat;lon;timestamp;P1;durP1;ratioP1;P2;durP2;ratioP2
10523;SDS011;5310;48.638;9.060;2023-05-01T00:01:44;0.90;;;0.90;;
10523;SDS011;5310;48.638;9.060;2023-05-01T00:04:10;1.00;;;1.00;;
10523;SDS011;5310;48.638;9.060;2023-05-01T00:06:36;0.90;;;0.90;;
10523;SDS011;5310;48.638;9.060;2023-05-01T00:09:02;0.90;;;0.90;;
10523;SDS011;5310;48.638;9.060;2023-05-01T00:11:28;0.90;;;0.90;;
10523;SDS011;5310;48.638;9.060;2023-05-01T00:13:55;0.90;;;0.90;;
10523;SDS011;5310;48.638;9.060;2023-05-01T00:16:21;0.90;;;0.90;;
10523;SDS011;5310;48.638;9.060;2023-05-01T00:18:47;0.90;;;0.90;;
10523;SDS011;5310;48.638;9.060;2023-05-01T00:21:13;0.80;;;0.80;;
10523;SDS011;5310;48.638;9.060;2023-05-01T00:23:39;0.90;;;0.90;;
10523;SDS011;5310;48.638;9.060;2023-05-01T00:26:05;1.00;;;1.00;;
10523;SDS011;5310;48.638;9.060;2023-05-01T00:28:31;1.00;;;1.00;;
10523;SDS011;5310;48.638;9.060;2023-05-01T00:30:57;0.90;;;0.90;;
10523;SDS011;5310;48.638;9.060;2023-05-01T00:33:23;1.00;;;1.00;;
10523;SDS011;5310;48.638;9.060;2023-05-01T00:35:49;1.00;;;1.00;;
10523;SDS011;5310;48.638;9.060;2023-05-01T00:38:16;0.90;;;0.90;;
10523;SDS011;5310;48.638;9.060;2023-05-01T00:40:43;0.90;;;0.90;;
10523;SDS011;5310;48.638;9.060;2023-05-01T00:43:09;0.90;;;0.90;;
10523;SDS011;5310;48.638;9.060;2023-05-01T00:45:39;0.90;;;0.90;;
10523;SDS011;5310;48.638;9.060;2023-05-01T00:48:08;0.83;;;0.83;;
10523;SDS011;5310;48.638;9.060;2023-05-01T00:50:34;0.90;;;0.90;;
10523;SDS011;5310;48.638;9.060;2023-05-01T00:53:01;0.97;;;0.97;;
10523;SDS011;5310;48.638;9.060;2023-05-01T00:55:27;1.00;;;1.00;;
10523;SDS011;5310;48.638;9.060;2023-05-01T00:57:55;1.00;;;1.00;;
10523;SDS011;5310;48.638;9.060;2023-05-01T01:00:21;1.00;;;1.00;;
10523;SDS011;5310;48.638;9.060;2023-05-01T01:02:48;0.80;;;0.80;;
10523;SDS011;5310;48.638;9.060;2023-05-01T01:05:14;0.90;;;0.90;;
10523;SDS011;5310;48.638;9.060;2023-05-01T01:10:26;0.80;;;0.80;;
10523;SDS011;5310;48.638;9.060;2023-05-01T01:13:03;0.90;;;0.90;;
10523;SDS011;5310;48.638;9.060;2023-05-01T01:15:52;0.90;;;0.90;;
10523;SDS011;5310;48.638;9.060;2023-05-01T01:18:22;0.90;;;0.90;;
10523;SDS011;5310;48.638;9.060;2023-05-01T01:20:57;0.80;;;0.80;;
10523;SDS011;5310;48.638;9.060;2023-05-01T01:26:00;0.90;;;0.90;;
10523;SDS011;5310;48.638;9.060;2023-05-01T01:34:49;0.90;;;0.90;;
10523;SDS011;5310;48.638;9.060;2023-05-01T01:37:25;0.97;;;0.97;;
10523;SDS011;5310;48.638;9.060;2023-05-01T01:42:24;0.90;;;0.90;;
10523;SDS011;5310;48.638;9.060;2023-05-01T01:44:55;0.90;;;0.90;;
10523;SDS011;5310;48.638;9.060;2023-05-01T01:47:23;0.90;;;0.90;;
10523;SDS011;5310;48.638;9.060;2023-05-01T01:49:52;0.83;;;0.83;;
10523;SDS011;5310;48.638;9.060;2023-05-01T01:52:19;1.00;;;1.00;;
10523;SDS011;5310;48.638;9.060;2023-05-01T01:54:49;0.90;;;0.90;;
10523;SDS011;5310;48.638;9.060;2023-05-01T01:57:17;0.80;;;0.80;;
10523;SDS011;5310;48.638;9.060;2023-05-01T01:59:43;0.90;;;0.90;;
10523;SDS011;5310;48.638;9.060;2023-05-01T02:02:11;0.90;;;0.90;;
10523;SDS011;5310;48.638;9.060;2023-05-01T02:04:38;0.97;;;0.97;;
10523;SDS011;5310;48.638;9.060;2023-05-01T02:07:06;0.90;;;0.90;;
10523;SDS011;5310;48.638;9.060;2023-05-01T02:09:33;0.90;;;0.90;;
10523;SDS011;5310;48.638;9.060;2023-05-01T02:12:01;0.90;;;0.90;;
10523;SDS011;5310;48.638;9.060;2023-05-01T02:14:27;1.00;;;1.00;;
10523;SDS011;5310;48.638;9.060;2023-05-01T02:16:53;1.00;;;1.00;;
10523;SDS011;5310;48.638;9.060;2023-05-01T02:19:21;0.90;;;0.90;;
10523;SDS011;5310;48.638;9.060;2023-05-01T02:21:47;0.90;;;0.90;;
10523;SDS011;5310;48.638;9.060;2023-05-01T02:24:14;0.80;;;0.80;;
10523;SDS011;5310;48.638;9.060;2023-05-01T02:26:41;1.00;;;1.00;;
10523;SDS011;5310;48.638;9.060;2023-05-01T02:29:09;0.90;;;0.90;;
10523;SDS011;5310;48.638;9.060;2023-05-01T02:31:35;0.90;;;0.90;;
10523;SDS011;5310;48.638;9.060;2023-05-01T02:34:01;0.80;;;0.80;;
10523;SDS011;5310;48.638;9.060;2023-05-01T02:36:27;0.97;;;0.97;;
10523;SDS011;5310;48.638;9.060;2023-05-01T02:38:53;0.90;;;0.90;;
10523;SDS011;5310;48.638;9.060;2023-05-01T02:41:19;0.90;;;0.90;;
10523;SDS011;5310;48.638;9.060;2023-05-01T02:43:47;0.80;;;0.80;;
10523;SDS011;5310;48.638;9.060;2023-05-01T02:46:16;0.87;;;0.87;;
10523;SDS011;5310;48.638;9.060;2023-05-01T02:48:44;0.90;;;0.90;;
10523;SDS011;5310;48.638;9.060;2023-05-01T02:51:11;0.90;;;0.90;;
10523;SDS011;5310;48.638;9.060;2023-05-01T02:53:37;0.90;;;0.90;;
10523;SDS011;5310;48.638;9.060;2023-05-01T02:56:04;0.90;;;0.90;;
10523;SDS011;5310;48.638;9.060;2023-05-01T02:58:32;0.90;;;0.90;;
10523;SDS011;5310;48.638;9.060;2023-05-01T03:00:58;0.80;;;0.80;;
10523;SDS011;5310;48.638;9.060;2023-05-01T03:03:24;0.80;;;0.80;;
10523;SDS011;5310;48.638;9.060;2023-05-01T03:05:51;0.80;;;0.80;;
10523;SDS011;5310;48.638;9.060;2023-05-01T03:08:17;0.80;;;0.80;;
10523;SDS011;5310;48.638;9.060;2023-05-01T03:10:44;0.90;;;0.90;;
10523;SDS011;5310;48.638;9.060;2023-05-01T03:13:10;0.90;;;0.90;;
10523;SDS011;5310;48.638;9.060;2023-05-01T03:15:36;0.80;;;0.80;;
10523;SDS011;5310;48.638;9.060;2023-05-01T03:18:02;0.80;;;0.80;;
10523;SDS011;5310;48.638;9.060;2023-05-01T03:20:28;0.90;;;0.90;;
10523;SDS011;5310;48.638;9.060;2023-05-01T03:22:55;0.80;;;0.80;;
10523;SDS011;5310;48.638;9.060;2023-05-01T03:25:21;0.90;;;0.90;;
10523;SDS011;5310;48.638;9.060;2023-05-01T03:27:47;0.90;;;0.90;;
10523;SDS011;5310;48.638;9.060;2023-05-01T03:30:14;0.83;;;0.83;;
10523;SDS011;5310;48.638;9.060;2023-05-01T03:32:39;0.80;;;0.80;;
10523;SDS011;5310;48.638;9.060;2023-05-01T03:35:05;0.90;;;0.90;;
10523;SDS011;5310;48.638;9.060;2023-05-01T03:37:31;0.90;;;0.90;;
10523;SDS011;5310;48.638;9.060;2023-05-01T03:39:58;0.87;;;0.87;;
10523;SDS011;5310;48.638;9.060;2023-05-01T03:42:24;0.80;;;0.80;;
10523;SDS011;5310;48.638;9.060;2023-05-01T03:44:50;0.93;;;0.93;;
10523;SDS011;5310;48.638;9.060;2023-05-01T03:47:16;0.83;;;0.83;;
10523;SDS011;5310;48.638;9.060;2023-05-01T03:49:43;0.90;;;0.90;;
10523;SDS011;5310;48.638;9.060;2023-05-01T03:52:09;0.90;;;0.90;;
10523;SDS011;5310;48.638;9.060;2023-05-01T03:54:36;0.90;;;0.90;;
10523;SDS011;5310;48.638;9.060;2023-05-01T03:57:02;0.93;;;0.93;;
10523;SDS011;5310;48.638;9.060;2023-05-01T03:59:28;0.80;;;0.80;;
10523;SDS011;5310;48.638;9.060;2023-05-01T04:01:54;0.90;;;0.90;;
10523;SDS011;5310;48.638;9.060;2023-05-01T04:04:20;0.87;;;0.87;;
10523;SDS011;5310;48.638;9.060;2023-05-01T04:06:46;0.87;;;0.87;;
10523;SDS011;5310;48.638;9.060;2023-05-01T04:09:13;0.80;;;0.80;;
10523;SDS011;5310;48.638;9.060;2023-05-01T04:11:40;0.80;;;0.80;;
10523;SDS011;5310;48.638;9.060;2023-05-01T04:14:06;0.80;;;0.80;;
10523;SDS011;5310;48.638;9.060;2023-05-01T04:16:31;0.80;;;0.80;;
10523;SDS011;5310;48.638;9.060;2023-05-01T04:18:57;0.80;;;0.80;;
10523;SDS011;5310;48.638;9.060;2023-05-01T04:21:23;0.80;;;0.80;;
10523;SDS011;5310;48.638;9.060;2023-05-01T04:23:50;0.80;;;0.80;;
10523;SDS011;5310;48.638;9.060;2023-05-01T04:26:16;0.90;;;0.90;;
10523;SDS011;5310;48.638;9.060;2023-05-01T04:28:42;1.00;;;1.00;;
10523;SDS011;5310;48.638;9.060;2023-05-01T04:31:08;0.80;;;0.80;;
10523;SDS011;5310;48.638;9.060;2023-05-01T04:33:34;0.70;;;0.70;;
10523;SDS011;5310;48.638;9.060;2023-05-01T04:36:00;0.80;;;0.80;;
10523;SDS011;5310;48.638;9.060;2023-05-01T04:38:26;0.90;;;0.90;;
10523;SDS011;5310;48.638;9.060;2023-05-01T04:40:54;0.80;;;0.80;;
10523;SDS011;5310;48.638;9.060;2023-05-01T04:43:20;0.90;;;0.90;;
10523;SDS011;5310;48.638;9.060;2023-05-01T04:45:46;0.90;;;0.90;;
10523;SDS011;5310;48.638;9.060;2023-05-01T04:48:12;0.70;;;0.70;;
10523;SDS011;5310;48.638;9.060;2023-05-01T04:50:38;0.80;;;0.80;;
10523;SDS011;5310;48.638;9.060;2023-05-01T04:53:04;0.70;;;0.70;;
10523;SDS011;5310;48.638;9.060;2023-05-01T04:55:30;0.80;;;0.80;;
10523;SDS011;5310;48.638;9.060;2023-05-01T04:57:56;0.80;;;0.80;;
10523;SDS011;5310;48.638;9.060;2023-05-01T05:00:22;0.90;;;0.90;;
10523;SDS011;5310;48.638;9.060;2023-05-01T05:02:47;0.80;;;0.80;;
10523;SDS011;5310;48.638;9.060;2023-05-01T05:05:13;0.87;;;0.87;;
10523;SDS011;5310;48.638;9.060;2023-05-01T05:07:39;0.90;;;0.90;;
10523;SDS011;5310;48.638;9.060;2023-05-01T05:10:05;0.80;;;0.80;;
10523;SDS011;5310;48.638;9.060;2023-05-01T05:12:31;0.80;;;0.80;;
10523;SDS011;5310;48.638;9.060;2023-05-01T05:14:57;0.80;;;0.80;;
10523;SDS011;5310;48.638;9.060;2023-05-01T05:17:23;0.80;;;0.80;;
10523;SDS011;5310;48.638;9.060;2023-05-01T05:19:49;0.90;;;0.90;;
10523;SDS011;5310;48.638;9.060;2023-05-01T05:22:15;0.80;;;0.80;;
10523;SDS011;5310;48.638;9.060;2023-05-01T05:24:41;0.80;;;0.80;;
10523;SDS011;5310;48.638;9.060;2023-05-01T05:27:08;0.83;;;0.83;;
10523;SDS011;5310;48.638;9.060;2023-05-01T05:29:34;0.80;;;0.80;;
10523;SDS011;5310;48.638;9.060;2023-05-01T05:32:00;0.90;;;0.90;;
10523;SDS011;5310;48.638;9.060;2023-05-01T05:34:26;0.90;;;0.90;;
10523;SDS011;5310;48.638;9.060;2023-05-01T05:36:52;0.90;;;0.90;;
10523;SDS011;5310;48.638;9.060;2023-05-01T05:39:19;0.70;;;0.70;;
10523;SDS011;5310;48.638;9.060;2023-05-01T05:41:46;0.90;;;0.90;;
10523;SDS011;5310;48.638;9.060;2023-05-01T05:44:13;0.90;;;0.90;;
10523;SDS011;5310;48.638;9.060;2023-05-01T05:46:39;0.90;;;0.90;;
10523;SDS011;5310;48.638;9.060;2023-05-01T05:49:05;0.80;;;0.80;;
10523;SDS011;5310;48.638;9.060;2023-05-01T05:51:31;0.80;;;0.80;;
10523;SDS011;5310;48.638;9.060;2023-05-01T05:53:57;0.80;;;0.80;;
10523;SDS011;5310;48.638;9.060;2023-05-01T05:56:23;0.90;;;0.90;;
10523;SDS011;5310;48.638;9.060;2023-05-01T05:58:48;0.80;;;0.80;;
10523;SDS011;5310;48.638;9.060;2023-05-01T06:01:14;0.90;;;0.90;;
10523;SDS011;5310;48.638;9.060;2023-05-01T06:03:41;1.00;;;1.00;;
10523;SDS011;5310;48.638;9.060;2023-05-01T06:06:07;1.00;;;1.00;;
10523;SDS011;5310;48.638;9.060;2023-05-01T06:08:33;0.83;;;0.83;;
10523;SDS011;5310;48.638;9.060;2023-05-01T06:11:01;0.80;;;0.80;;
10523;SDS011;5310;48.638;9.060;2023-05-01T06:13:27;0.87;;;0.87;;
10523;SDS011;5310;48.638;9.060;2023-05-01T06:15:53;0.90;;;0.90;;
10523;SDS011;5310;48.638;9.060;2023-05-01T06:18:19;0.90;;;0.90;;
10523;SDS011;5310;48.638;9.060;2023-05-01T06:20:45;0.70;;;0.70;;
10523;SDS011;5310;48.638;9.060;2023-05-01T06:23:11;0.73;;;0.73;;
10523;SDS011;5310;48.638;9.060;2023-05-01T06:25:37;0.70;;;0.70;;
10523;SDS011;5310;48.638;9.060;2023-05-01T06:28:04;0.80;;;0.80;;
10523;SDS011;5310;48.638;9.060;2023-05-01T06:30:30;0.80;;;0.80;;
10523;SDS011;5310;48.638;9.060;2023-05-01T06:32:56;0.80;;;0.80;;
10523;SDS011;5310;48.638;9.060;2023-05-01T06:35:22;0.80;;;0.80;;
10523;SDS011;5310;48.638;9.060;2023-05-01T06:37:47;0.80;;;0.80;;
10523;SDS011;5310;48.638;9.060;2023-05-01T06:40:13;0.80;;;0.80;;
10523;SDS011;5310;48.638;9.060;2023-05-01T06:42:39;0.80;;;0.80;;
10523;SDS011;5310;48.638;9.060;2023-05-01T06:45:06;0.90;;;0.90;;
10523;SDS011;5310;48.638;9.060;2023-05-01T06:47:32;0.70;;;0.70;;
10523;SDS011;5310;48.638;9.060;2023-05-01T06:49:58;0.70;;;0.70;;
10523;SDS011;5310;48.638;9.060;2023-05-01T06:52:24;0.80;;;0.80;;
10523;SDS011;5310;48.638;9.060;2023-05-01T06:54:49;0.90;;;0.90;;
10523;SDS011;5310;48.638;9.060;2023-05-01T06:57:15;0.70;;;0.70;;
10523;SDS011;5310;48.638;9.060;2023-05-01T06:59:41;0.80;;;0.80;;
10523;SDS011;5310;48.638;9.060;2023-05-01T07:02:07;0.70;;;0.70;;
10523;SDS011;5310;48.638;9.060;2023-05-01T07:04:33;0.70;;;0.70;;
10523;SDS011;5310;48.638;9.060;2023-05-01T07:06:59;0.80;;;0.80;;
10523;SDS011;5310;48.638;9.060;2023-05-01T07:09:26;0.60;;;0.60;;
10523;SDS011;5310;48.638;9.060;2023-05-01T07:11:52;0.70;;;0.70;;
10523;SDS011;5310;48.638;9.060;2023-05-01T07:14:20;0.77;;;0.77;;
10523;SDS011;5310;48.638;9.060;2023-05-01T07:16:46;0.70;;;0.70;;
10523;SDS011;5310;48.638;9.060;2023-05-01T07:19:13;0.70;;;0.70;;
10523;SDS011;5310;48.638;9.060;2023-05-01T07:21:39;0.73;;;0.73;;
10523;SDS011;5310;48.638;9.060;2023-05-01T07:24:05;0.70;;;0.70;;
10523;SDS011;5310;48.638;9.060;2023-05-01T07:26:31;0.70;;;0.70;;
10523;SDS011;5310;48.638;9.060;2023-05-01T07:28:57;0.80;;;0.80;;
10523;SDS011;5310;48.638;9.060;2023-05-01T07:31:23;0.70;;;0.70;;
10523;SDS011;5310;48.638;9.060;2023-05-01T07:33:49;0.60;;;0.60;;
10523;SDS011;5310;48.638;9.060;2023-05-01T07:36:15;0.70;;;0.70;;
10523;SDS011;5310;48.638;9.060;2023-05-01T07:38:42;0.70;;;0.70;;
10523;SDS011;5310;48.638;9.060;2023-05-01T07:41:09;0.67;;;0.67;;
10523;SDS011;5310;48.638;9.060;2023-05-01T07:43:35;0.70;;;0.70;;
10523;SDS011;5310;48.638;9.060;2023-05-01T07:46:01;0.70;;;0.70;;
10523;SDS011;5310;48.638;9.060;2023-05-01T07:48:27;0.60;;;0.60;;
10523;SDS011;5310;48.638;9.060;2023-05-01T07:50:53;0.70;;;0.70;;
10523;SDS011;5310;48.638;9.060;2023-05-01T07:53:20;0.70;;;0.70;;
10523;SDS011;5310;48.638;9.060;2023-05-01T07:55:49;0.63;;;0.63;;
10523;SDS011;5310;48.638;9.060;2023-05-01T07:58:15;0.60;;;0.60;;
10523;SDS011;5310;48.638;9.060;2023-05-01T08:00:41;0.70;;;0.70;;
10523;SDS011;5310;48.638;9.060;2023-05-01T08:03:09;0.70;;;0.70;;
10523;SDS011;5310;48.638;9.060;2023-05-01T08:05:38;0.73;;;0.73;;
10523;SDS011;5310;48.638;9.060;2023-05-01T08:08:04;0.70;;;0.70;;
10523;SDS011;5310;48.638;9.060;2023-05-01T08:10:30;0.70;;;0.70;;
10523;SDS011;5310;48.638;9.060;2023-05-01T08:12:56;0.60;;;0.60;;
10523;SDS011;5310;48.638;9.060;2023-05-01T08:15:22;0.70;;;0.70;;
10523;SDS011;5310;48.638;9.060;2023-05-01T08:17:48;0.70;;;0.70;;
10523;SDS011;5310;48.638;9.060;2023-05-01T08:20:15;0.70;;;0.70;;
10523;SDS011;5310;48.638;9.060;2023-05-01T08:22:41;0.70;;;0.70;;
10523;SDS011;5310;48.638;9.060;2023-05-01T08:25:07;0.73;;;0.73;;
10523;SDS011;5310;48.638;9.060;2023-05-01T08:27:33;0.60;;;0.60;;
10523;SDS011;5310;48.638;9.060;2023-05-01T08:29:59;0.70;;;0.70;;
10523;SDS011;5310;48.638;9.060;2023-05-01T08:32:25;0.67;;;0.67;;
10523;SDS011;5310;48.638;9.060;2023-05-01T08:34:50;0.60;;;0.60;;
10523;SDS011;5310;48.638;9.060;2023-05-01T08:37:16;0.70;;;0.70;;
10523;SDS011;5310;48.638;9.060;2023-05-01T08:39:43;0.70;;;0.70;;
10523;SDS011;5310;48.638;9.060;2023-05-01T08:42:09;0.63;;;0.63;;
10523;SDS011;5310;48.638;9.060;2023-05-01T08:44:37;0.70;;;0.70;;
10523;SDS011;5310;48.638;9.060;2023-05-01T08:47:16;0.53;;;0.53;;
10523;SDS011;5310;48.638;9.060;2023-05-01T08:49:43;0.60;;;0.60;;
10523;SDS011;5310;48.638;9.060;2023-05-01T08:52:10;0.53;;;0.53;;
10523;SDS011;5310;48.638;9.060;2023-05-01T08:54:43;0.60;;;0.60;;
10523;SDS011;5310;48.638;9.060;2023-05-01T08:57:10;0.57;;;0.57;;
10523;SDS011;5310;48.638;9.060;2023-05-01T08:59:36;0.60;;;0.60;;
10523;SDS011;5310;48.638;9.060;2023-05-01T09:02:04;0.60;;;0.60;;
10523;SDS011;5310;48.638;9.060;2023-05-01T09:04:32;0.50;;;0.50;;
10523;SDS011;5310;48.638;9.060;2023-05-01T09:06:59;0.50;;;0.50;;
10523;SDS011;5310;48.638;9.060;2023-05-01T09:09:26;0.60;;;0.60;;
10523;SDS011;5310;48.638;9.060;2023-05-01T09:11:53;0.82;;;0.82;;
10523;SDS011;5310;48.638;9.060;2023-05-01T09:14:21;0.60;;;0.60;;
10523;SDS011;5310;48.638;9.060;2023-05-01T09:16:47;0.60;;;0.60;;
10523;SDS011;5310;48.638;9.060;2023-05-01T09:19:13;0.60;;;0.60;;
10523;SDS011;5310;48.638;9.060;2023-05-01T09:21:39;0.60;;;0.60;;
10523;SDS011;5310;48.638;9.060;2023-05-01T09:24:05;0.60;;;0.60;;
10523;SDS011;5310;48.638;9.060;2023-05-01T09:26:32;0.60;;;0.60;;
10523;SDS011;5310;48.638;9.060;2023-05-01T09:29:00;0.50;;;0.50;;
10523;SDS011;5310;48.638;9.060;2023-05-01T09:31:27;0.60;;;0.60;;
10523;SDS011;5310;48.638;9.060;2023-05-01T09:34:02;0.60;;;0.60;;
10523;SDS011;5310;48.638;9.060;2023-05-01T09:36:30;0.67;;;0.67;;
10523;SDS011;5310;48.638;9.060;2023-05-01T09:38:57;0.63;;;0.63;;
10523;SDS011;5310;48.638;9.060;2023-05-01T09:41:24;0.60;;;0.60;;
10523;SDS011;5310;48.638;9.060;2023-05-01T09:43:54;0.60;;;0.60;;
10523;SDS011;5310;48.638;9.060;2023-05-01T09:46:21;0.50;;;0.50;;
10523;SDS011;5310;48.638;9.060;2023-05-01T09:48:53;0.50;;;0.50;;
10523;SDS011;5310;48.638;9.060;2023-05-01T09:51:20;0.60;;;0.60;;
10523;SDS011;5310;48.638;9.060;2023-05-01T09:53:46;0.50;;;0.50;;
10523;SDS011;5310;48.638;9.060;2023-05-01T09:56:13;0.70;;;0.70;;
10523;SDS011;5310;48.638;9.060;2023-05-01T09:58:39;0.70;;;0.70;;
10523;SDS011;5310;48.638;9.060;2023-05-01T10:01:05;0.60;;;0.60;;
10523;SDS011;5310;48.638;9.060;2023-05-01T10:03:31;0.60;;;0.60;;
10523;SDS011;5310;48.638;9.060;2023-05-01T10:05:58;0.70;;;0.70;;
10523;SDS011;5310;48.638;9.060;2023-05-01T10:08:32;0.70;;;0.70;;
10523;SDS011;5310;48.638;9.060;2023-05-01T10:11:11;0.70;;;0.70;;
10523;SDS011;5310;48.638;9.060;2023-05-01T10:13:38;0.80;;;0.80;;
10523;SDS011;5310;48.638;9.060;2023-05-01T10:16:04;0.80;;;0.80;;
10523;SDS011;5310;48.638;9.060;2023-05-01T10:18:35;0.80;;;0.80;;
10523;SDS011;5310;48.638;9.060;2023-05-01T10:21:04;0.80;;;0.80;;
10523;SDS011;5310;48.638;9.060;2023-05-01T10:23:30;0.80;;;0.80;;
10523;SDS011;5310;48.638;9.060;2023-05-01T10:25:57;0.70;;;0.70;;
10523;SDS011;5310;48.638;9.060;2023-05-01T10:28:25;0.67;;;0.67;;
10523;SDS011;5310;48.638;9.060;2023-05-01T10:30:52;0.60;;;0.60;;
10523;SDS011;5310;48.638;9.060;2023-05-01T10:33:19;0.60;;;0.60;;
10523;SDS011;5310;48.638;9.060;2023-05-01T10:35:47;0.80;;;0.80;;
10523;SDS011;5310;48.638;9.060;2023-05-01T10:38:24;0.73;;;0.73;;
10523;SDS011;5310;48.638;9.060;2023-05-01T10:40:51;0.70;;;0.70;;
10523;SDS011;5310;48.638;9.060;2023-05-01T10:43:24;0.63;;;0.63;;
10523;SDS011;5310;48.638;9.060;2023-05-01T10:45:52;0.82;;;0.82;;
10523;SDS011;5310;48.638;9.060;2023-05-01T10:53:35;0.60;;;0.60;;
10523;SDS011;5310;48.638;9.060;2023-05-01T10:56:05;0.80;;;0.80;;
10523;SDS011;5310;48.638;9.060;2023-05-01T10:58:59;0.63;;;0.63;;
10523;SDS011;5310;48.638;9.060;2023-05-01T11:01:35;0.70;;;0.70;;
10523;SDS011;5310;48.638;9.060;2023-05-01T11:06:28;0.70;;;0.70;;
10523;SDS011;5310;48.638;9.060;2023-05-01T11:08:54;0.70;;;0.70;;
10523;SDS011;5310;48.638;9.060;2023-05-01T11:13:59;0.70;;;0.70;;
10523;SDS011;5310;48.638;9.060;2023-05-01T11:21:33;0.77;;;0.77;;
10523;SDS011;5310;48.638;9.060;2023-05-01T11:24:00;0.80;;;0.80;;
10523;SDS011;5310;48.638;9.060;2023-05-01T11:26:27;0.80;;;0.80;;
10523;SDS011;5310;48.638;9.060;2023-05-01T11:28:54;0.70;;;0.70;;
10523;SDS011;5310;48.638;9.060;2023-05-01T11:31:20;0.80;;;0.80;;
10523;SDS011;5310;48.638;9.060;2023-05-01T11:33:46;0.83;;;0.83;;
10523;SDS011;5310;48.638;9.060;2023-05-01T11:36:12;0.73;;;0.73;;
10523;SDS011;5310;48.638;9.060;2023-05-01T11:38:48;0.77;;;0.77;;
10523;SDS011;5310;48.638;9.060;2023-05-01T11:41:15;0.90;;;0.90;;
10523;SDS011;5310;48.638;9.060;2023-05-01T11:43:49;0.80;;;0.80;;
10523;SDS011;5310;48.638;9.060;2023-05-01T11:46:28;0.60;;;0.60;;
10523;SDS011;5310;48.638;9.060;2023-05-01T11:48:58;0.80;;;0.80;;
10523;SDS011;5310;48.638;9.060;2023-05-01T11:51:25;0.70;;;0.70;;
10523;SDS011;5310;48.638;9.060;2023-05-01T11:54:02;0.60;;;0.60;;
10523;SDS011;5310;48.638;9.060;2023-05-01T11:56:28;0.63;;;0.63;;
10523;SDS011;5310;48.638;9.060;2023-05-01T11:58:55;0.70;;;0.70;;
10523;SDS011;5310;48.638;9.060;2023-05-01T12:01:37;0.80;;;0.80;;
10523;SDS011;5310;48.638;9.060;2023-05-01T12:04:04;0.70;;;0.70;;
10523;SDS011;5310;48.638;9.060;2023-05-01T12:06:38;0.70;;;0.70;;
10523;SDS011;5310;48.638;9.060;2023-05-01T12:09:07;0.77;;;0.77;;
10523;SDS011;5310;48.638;9.060;2023-05-01T12:11:34;0.77;;;0.77;;
10523;SDS011;5310;48.638;9.060;2023-05-01T12:14:00;0.67;;;0.67;;
10523;SDS011;5310;48.638;9.060;2023-05-01T12:16:26;0.90;;;0.90;;
10523;SDS011;5310;48.638;9.060;2023-05-01T12:18:53;0.73;;;0.73;;
10523;SDS011;5310;48.638;9.060;2023-05-01T12:21:19;0.70;;;0.70;;
10523;SDS011;5310;48.638;9.060;2023-05-01T12:23:45;1.00;;;1.00;;
10523;SDS011;5310;48.638;9.060;2023-05-01T12:26:18;0.70;;;0.70;;
10523;SDS011;5310;48.638;9.060;2023-05-01T12:28:55;0.60;;;0.60;;
10523;SDS011;5310;48.638;9.060;2023-05-01T12:31:22;0.50;;;0.50;;
10523;SDS011;5310;48.638;9.060;2023-05-01T12:36:40;0.70;;;0.70;;
10523;SDS011;5310;48.638;9.060;2023-05-01T12:39:07;0.60;;;0.60;;
10523;SDS011;5310;48.638;9.060;2023-05-01T12:46:44;0.50;;;0.50;;
10523;SDS011;5310;48.638;9.060;2023-05-01T12:49:18;0.60;;;0.60;;
10523;SDS011;5310;48.638;9.060;2023-05-01T12:51:47;0.67;;;0.67;;
10523;SDS011;5310;48.638;9.060;2023-05-01T12:54:17;0.70;;;0.70;;
10523;SDS011;5310;48.638;9.060;2023-05-01T12:56:47;0.60;;;0.60;;
10523;SDS011;5310;48.638;9.060;2023-05-01T12:59:24;0.60;;;0.60;;
10523;SDS011;5310;48.638;9.060;2023-05-01T13:01:56;0.60;;;0.60;;
10523;SDS011;5310;48.638;9.060;2023-05-01T13:04:23;0.70;;;0.70;;
10523;SDS011;5310;48.638;9.060;2023-05-01T13:06:49;0.70;;;0.70;;
10523;SDS011;5310;48.638;9.060;2023-05-01T13:09:15;0.70;;;0.70;;
10523;SDS011;5310;48.638;9.060;2023-05-01T13:11:41;0.80;;;0.80;;
10523;SDS011;5310;48.638;9.060;2023-05-01T13:14:08;0.80;;;0.80;;
10523;SDS011;5310;48.638;9.060;2023-05-01T13:16:44;0.70;;;0.70;;
10523;SDS011;5310;48.638;9.060;2023-05-01T13:19:13;0.70;;;0.70;;
10523;SDS011;5310;48.638;9.060;2023-05-01T13:21:52;0.80;;;0.80;;
10523;SDS011;5310;48.638;9.060;2023-05-01T13:24:18;0.80;;;0.80;;
10523;SDS011;5310;48.638;9.060;2023-05-01T13:26:44;0.80;;;0.80;;
10523;SDS011;5310;48.638;9.060;2023-05-01T13:29:14;0.70;;;0.70;;
10523;SDS011;5310;48.638;9.060;2023-05-01T13:31:43;0.80;;;0.80;;
10523;SDS011;5310;48.638;9.060;2023-05-01T13:34:10;0.70;;;0.70;;
10523;SDS011;5310;48.638;9.060;2023-05-01T13:36:36;0.80;;;0.80;;
10523;SDS011;5310;48.638;9.060;2023-05-01T13:39:04;0.80;;;0.80;;
10523;SDS011;5310;48.638;9.060;2023-05-01T13:41:30;0.73;;;0.73;;
10523;SDS011;5310;48.638;9.060;2023-05-01T13:43:56;0.80;;;0.80;;
10523;SDS011;5310;48.638;9.060;2023-05-01T13:46:23;0.80;;;0.80;;
10523;SDS011;5310;48.638;9.060;2023-05-01T13:48:52;0.80;;;0.80;;
10523;SDS011;5310;48.638;9.060;2023-05-01T13:51:19;0.80;;;0.80;;
10523;SDS011;5310;48.638;9.060;2023-05-01T13:53:45;0.73;;;0.73;;
10523;SDS011;5310;48.638;9.060;2023-05-01T13:56:11;0.90;;;0.90;;
10523;SDS011;5310;48.638;9.060;2023-05-01T13:58:39;0.80;;;0.80;;
10523;SDS011;5310;48.638;9.060;2023-05-01T14:01:05;0.80;;;0.80;;
10523;SDS011;5310;48.638;9.060;2023-05-01T14:03:37;0.80;;;0.80;;
10523;SDS011;5310;48.638;9.060;2023-05-01T14:06:05;0.80;;;0.80;;
10523;SDS011;5310;48.638;9.060;2023-05-01T14:08:33;0.63;;;0.63;;
10523;SDS011;5310;48.638;9.060;2023-05-01T14:10:59;0.70;;;0.70;;
10523;SDS011;5310;48.638;9.060;2023-05-01T14:13:25;0.70;;;0.70;;
10523;SDS011;5310;48.638;9.060;2023-05-01T14:15:51;0.70;;;0.70;;
10523;SDS011;5310;48.638;9.060;2023-05-01T14:18:17;0.80;;;0.80;;
10523;SDS011;5310;48.638;9.060;2023-05-01T14:20:44;0.80;;;0.80;;
10523;SDS011;5310;48.638;9.060;2023-05-01T14:23:14;0.90;;;0.90;;
10523;SDS011;5310;48.638;9.060;2023-05-01T14:25:41;1.00;;;1.00;;
10523;SDS011;5310;48.638;9.060;2023-05-01T14:28:08;0.90;;;0.90;;
10523;SDS011;5310;48.638;9.060;2023-05-01T14:30:36;0.77;;;0.77;;
10523;SDS011;5310;48.638;9.060;2023-05-01T14:33:03;0.80;;;0.80;;
10523;SDS011;5310;48.638;9.060;2023-05-01T14:35:29;0.90;;;0.90;;
10523;SDS011;5310;48.638;9.060;2023-05-01T14:38:05;0.97;;;0.97;;
10523;SDS011;5310;48.638;9.060;2023-05-01T14:40:32;0.90;;;0.90;;
10523;SDS011;5310;48.638;9.060;2023-05-01T14:42:58;0.93;;;0.93;;
10523;SDS011;5310;48.638;9.060;2023-05-01T14:45:25;0.77;;;0.77;;
10523;SDS011;5310;48.638;9.060;2023-05-01T14:47:51;0.80;;;0.80;;
10523;SDS011;5310;48.638;9.060;2023-05-01T14:50:18;0.70;;;0.70;;
10523;SDS011;5310;48.638;9.060;2023-05-01T14:52:44;0.60;;;0.60;;
10523;SDS011;5310;48.638;9.060;2023-05-01T14:55:10;0.60;;;0.60;;
10523;SDS011;5310;48.638;9.060;2023-05-01T14:57:37;0.70;;;0.70;;
10523;SDS011;5310;48.638;9.060;2023-05-01T15:00:03;0.60;;;0.60;;
10523;SDS011;5310;48.638;9.060;2023-05-01T15:02:41;0.50;;;0.50;;
10523;SDS011;5310;48.638;9.060;2023-05-01T15:05:07;0.50;;;0.50;;
10523;SDS011;5310;48.638;9.060;2023-05-01T15:07:34;0.30;;;0.30;;
10523;SDS011;5310;48.638;9.060;2023-05-01T15:10:00;0.50;;;0.50;;
10523;SDS011;5310;48.638;9.060;2023-05-01T15:12:26;0.60;;;0.60;;
10523;SDS011;5310;48.638;9.060;2023-05-01T15:14:53;0.50;;;0.50;;
10523;SDS011;5310;48.638;9.060;2023-05-01T15:17:19;0.60;;;0.60;;
10523;SDS011;5310;48.638;9.060;2023-05-01T15:19:45;0.60;;;0.60;;
10523;SDS011;5310;48.638;9.060;2023-05-01T15:22:11;0.60;;;0.60;;
10523;SDS011;5310;48.638;9.060;2023-05-01T15:24:38;0.60;;;0.60;;
10523;SDS011;5310;48.638;9.060;2023-05-01T15:27:04;0.60;;;0.60;;
10523;SDS011;5310;48.638;9.060;2023-05-01T15:29:32;0.70;;;0.70;;
10523;SDS011;5310;48.638;9.060;2023-05-01T15:31:58;0.60;;;0.60;;
10523;SDS011;5310;48.638;9.060;2023-05-01T15:34:24;0.60;;;0.60;;
10523;SDS011;5310;48.638;9.060;2023-05-01T15:36:50;0.60;;;0.60;;
10523;SDS011;5310;48.638;9.060;2023-05-01T15:39:16;0.60;;;0.60;;